Time;durP1;ratioP1;P1;durP2;ratioP2;P2;SDS_P1;SDS_P2;PMS_P1;PMS_P2;Temp;Humidity;BMP_temperature;BMP_pressure;BME280_temperature;BME280_humidity;BME280_pressure;Samples;Min_cycle;Max_cycle;Signal;HPM_P1;HPM_P2
2022/02/09 00:00:17;;;;;;;1.00;0.60;;;0.50;90.60;;;;;;5033518;28;20104;-77
2022/02/09 00:03:04;;;;;;;1.10;0.80;;;0.50;90.50;;;;;;5015770;28;20113;-78
2022/02/09 00:05:43;;;;;;;0.40;0.40;;;0.50;90.20;;;;;;5013656;28;20369;-79
2022/02/09 00:08:10;;;;;;;0.40;0.40;;;0.40;89.80;;;;;;5013707;28;20088;-77
2022/02/09 00:10:38;;;;;;;2.15;0.65;;;0.40;89.30;;;;;;5013499;28;20037;-79
2022/02/09 00:13:28;;;;;;;0.65;0.60;;;0.40;89.00;;;;;;5013601;28;20026;-78
2022/02/09 00:16:01;;;;;;;0.85;0.60;;;0.50;88.50;;;;;;5013200;28;20034;-77
2022/02/09 00:18:37;;;;;;;0.45;0.40;;;0.50;88.30;;;;;;5013578;28;20026;-78
2022/02/09 00:24:05;;;;;;;0.25;0.25;;;0.50;87.90;;;;;;5013835;28;20030;-78
2022/02/09 01:33:12;;;;;;;1.50;0.80;;;0.70;86.70;;;;;;5011994;28;20064;-80
2022/02/09 01:56:58;;;;;;;0.73;0.73;;;0.70;86.80;;;;;;5014668;28;20052;-79
2022/02/09 01:59:24;;;;;;;1.02;0.85;;;0.70;86.90;;;;;;4995154;28;20053;-78
2022/02/09 02:01:50;;;;;;;0.73;0.73;;;0.70;87.00;;;;;;5012336;28;20411;-78
2022/02/09 02:04:16;;;;;;;0.80;0.80;;;0.70;87.00;;;;;;5012193;28;20057;-77
2022/02/09 02:06:44;;;;;;;1.73;1.13;;;0.70;86.90;;;;;;5012229;28;20455;-78
2022/02/09 02:09:11;;;;;;;1.33;0.80;;;0.70;87.00;;;;;;4994201;28;20444;-78
2022/02/09 02:11:46;;;;;;;1.55;1.10;;;0.60;87.10;;;;;;5011770;28;20037;-76
2022/02/09 02:16:59;;;;;;;2.33;0.93;;;0.60;87.10;;;;;;5011880;28;20038;-78
2022/02/09 02:19:36;;;;;;;2.92;1.20;;;0.70;87.30;;;;;;5011786;28;20018;-76
2022/02/09 03:17:31;;;;;;;1.90;1.55;;;0.70;88.90;;;;;;5014781;28;20115;-77
2022/02/09 03:20:06;;;;;;;1.92;1.65;;;0.70;88.80;;;;;;5014940;28;20169;-79
2022/02/09 03:23:38;;;;;;;5.22;2.17;;;0.70;88.90;;;;;;5015318;28;20065;-77
2022/02/09 03:52:03;;;;;;;3.17;2.03;;;0.40;89.80;;;;;;5016080;28;20181;-77
2022/02/09 03:57:28;;;;;;;3.28;1.85;;;0.50;89.70;;;;;;5017841;28;20121;-78
2022/02/09 03:59:56;;;;;;;2.17;1.98;;;0.50;89.60;;;;;;5019923;28;20026;-78
2022/02/09 04:02:22;;;;;;;2.50;2.10;;;0.40;89.60;;;;;;5014234;28;20040;-78
2022/02/09 04:04:54;;;;;;;1.63;1.27;;;0.40;89.30;;;;;;5013987;28;20109;-78
2022/02/09 04:07:20;;;;;;;1.80;1.30;;;0.40;87.80;;;;;;4995444;28;20026;-77
2022/02/09 04:09:49;;;;;;;1.20;1.10;;;0.40;87.20;;;;;;5013606;28;20045;-77
2022/02/09 04:15:19;;;;;;;2.03;1.50;;;0.40;85.80;;;;;;5003432;28;20440;-77
2022/02/09 04:39:29;;;;;;;2.15;1.50;;;0.40;85.90;;;;;;4999954;28;20096;-77
2022/02/09 04:42:32;;;;;;;2.38;1.48;;;0.50;85.90;;;;;;4995884;28;20052;-77
2022/02/09 04:47:34;;;;;;;2.55;1.48;;;0.50;85.80;;;;;;5030257;28;20044;-77
2022/02/09 04:57:47;;;;;;;1.95;1.20;;;0.60;84.40;;;;;;5033059;28;20025;-78
2022/02/09 05:24:47;;;;;;;3.10;2.08;;;0.60;85.20;;;;;;5012568;28;20084;-79
2022/02/09 05:27:01;;;;;;;2.10;1.70;;;0.60;85.20;;;;;;5009252;28;20038;-78
2022/02/09 05:29:27;;;;;;;1.90;1.70;;;0.60;85.00;;;;;;5012755;28;20025;-78
2022/02/09 05:31:53;;;;;;;2.67;1.80;;;0.60;85.20;;;;;;5011829;28;20046;-78
2022/02/09 05:34:19;;;;;;;3.72;2.10;;;0.60;85.30;;;;;;5012938;28;20022;-78
2022/02/09 05:36:45;;;;;;;2.53;1.75;;;0.70;85.40;;;;;;5011892;28;20313;-79
2022/02/09 05:39:15;;;;;;;4.80;2.00;;;0.70;85.40;;;;;;5012624;28;20030;-81
2022/02/09 05:41:44;;;;;;;2.72;1.95;;;0.70;85.00;;;;;;5012151;28;20101;-79
2022/02/09 05:44:12;;;;;;;3.20;1.75;;;0.60;84.90;;;;;;5011646;28;20447;-79
2022/02/09 05:49:35;;;;;;;3.40;2.42;;;0.70;85.00;;;;;;5011893;28;20095;-79
2022/02/09 05:52:19;;;;;;;3.03;2.20;;;0.70;85.10;;;;;;5011962;28;20030;-80
2022/02/09 05:55:20;;;;;;;5.03;2.47;;;0.70;85.00;;;;;;5009823;28;20497;-78
2022/02/09 05:57:49;;;;;;;3.40;2.03;;;0.70;84.90;;;;;;5011533;28;20049;-80
2022/02/09 06:00:16;;;;;;;3.67;2.30;;;0.80;85.00;;;;;;5011870;28;20018;-79
2022/02/09 06:02:43;;;;;;;4.40;2.45;;;0.80;85.10;;;;;;5012551;28;20120;-80
2022/02/09 06:05:10;;;;;;;4.53;2.90;;;0.90;85.20;;;;;;5015606;28;20022;-78
2022/02/09 06:07:36;;;;;;;5.78;2.80;;;0.90;85.20;;;;;;5016431;28;20072;-76
2022/02/09 06:10:02;;;;;;;4.00;2.08;;;0.90;85.00;;;;;;5013125;28;20513;-78
2022/02/09 06:12:40;;;;;;;3.20;2.20;;;0.90;85.00;;;;;;5011839;28;20093;-79
2022/02/09 06:20:35;;;;;;;3.70;2.42;;;1.00;85.20;;;;;;5017073;28;20117;-80
2022/02/09 06:23:01;;;;;;;4.50;2.80;;;1.00;85.30;;;;;;5031561;28;20026;-80
2022/02/09 06:25:26;;;;;;;4.70;2.47;;;1.00;85.30;;;;;;5031414;28;20037;-79
2022/02/09 06:27:52;;;;;;;6.15;3.03;;;1.00;85.10;;;;;;5031579;28;20386;-80
2022/02/09 06:30:18;;;;;;;3.00;2.10;;;1.00;85.20;;;;;;5033755;28;20505;-78
2022/02/09 06:32:44;;;;;;;5.13;2.88;;;1.10;85.50;;;;;;5025809;28;20049;-79
2022/02/09 06:35:09;;;;;;;4.20;3.13;;;1.10;85.60;;;;;;5015961;28;20033;-80
2022/02/09 06:37:44;;;;;;;4.03;3.42;;;1.20;85.70;;;;;;5019807;28;20017;-80
2022/02/09 06:40:14;;;;;;;4.93;3.72;;;1.20;85.80;;;;;;5035640;28;20459;-77
2022/02/09 06:42:40;;;;;;;3.88;3.22;;;1.30;86.00;;;;;;5035598;28;20049;-78
2022/02/09 06:45:13;;;;;;;5.20;3.60;;;1.30;86.00;;;;;;5035237;28;20502;-78
2022/02/09 06:47:40;;;;;;;5.03;3.47;;;1.30;86.10;;;;;;5035334;28;20014;-79
2022/02/09 06:50:10;;;;;;;6.05;3.67;;;1.30;86.30;;;;;;5035032;28;20116;-78
2022/02/09 06:52:43;;;;;;;6.45;3.30;;;1.40;86.40;;;;;;5029294;28;20025;-79
2022/02/09 07:00:22;;;;;;;4.07;3.30;;;1.50;86.70;;;;;;5033296;28;20029;-80
2022/02/09 07:02:48;;;;;;;6.25;3.28;;;1.50;86.70;;;;;;5014540;28;20022;-79
2022/02/09 07:05:15;;;;;;;10.70;5.03;;;1.50;86.90;;;;;;5015045;28;20121;-79
2022/02/09 07:07:41;;;;;;;5.30;3.37;;;1.40;86.90;;;;;;4996714;28;20026;-78
2022/02/09 07:10:10;;;;;;;6.57;3.70;;;1.50;87.10;;;;;;4997086;28;20128;-79
2022/02/09 07:12:38;;;;;;;4.30;3.80;;;1.50;87.20;;;;;;5017030;28;20096;-82
2022/02/09 07:15:08;;;;;;;5.55;3.08;;;1.60;87.10;;;;;;5015151;28;20478;-84
2022/02/09 07:17:33;;;;;;;5.22;3.40;;;1.60;86.90;;;;;;5013705;28;20124;-80
2022/02/09 07:20:15;;;;;;;9.43;3.70;;;1.60;87.20;;;;;;5013283;28;20109;-81
2022/02/09 07:22:41;;;;;;;4.57;3.25;;;1.60;87.30;;;;;;5014439;28;20101;-81
2022/02/09 07:25:13;;;;;;;6.57;3.40;;;1.70;87.40;;;;;;5014342;28;20116;-81
2022/02/09 07:27:52;;;;;;;5.85;3.85;;;1.80;87.50;;;;;;5014117;28;20064;-79
2022/02/09 07:30:27;;;;;;;6.35;3.80;;;2.00;87.00;;;;;;5014567;28;20130;-81
2022/02/09 07:32:59;;;;;;;5.85;4.05;;;2.10;86.30;;;;;;5012962;28;20050;-82
2022/02/09 07:35:25;;;;;;;4.75;3.25;;;2.00;85.90;;;;;;4997342;28;20030;-82
2022/02/09 07:37:51;;;;;;;5.72;4.05;;;1.90;85.70;;;;;;5014228;28;20018;-80
2022/02/09 07:40:18;;;;;;;7.10;3.45;;;1.80;85.80;;;;;;4997515;28;20026;-81
2022/02/09 07:42:49;;;;;;;3.58;3.00;;;1.50;86.00;;;;;;5013147;28;20084;-83
2022/02/09 07:47:48;;;;;;;8.15;3.50;;;1.20;87.10;;;;;;5014579;28;20072;-82
2022/02/09 07:50:30;;;;;;;6.30;5.00;;;1.20;87.50;;;;;;5015708;28;20037;-81
2022/02/09 07:53:12;;;;;;;6.72;3.92;;;1.10;87.80;;;;;;5015540;28;20519;-81
2022/02/09 07:55:39;;;;;;;4.57;3.10;;;1.10;88.00;;;;;;4999682;28;20057;-82
2022/02/09 07:58:06;;;;;;;3.77;2.93;;;1.20;88.00;;;;;;5015080;28;20024;-84
2022/02/09 08:00:32;;;;;;;4.10;2.83;;;1.10;87.60;;;;;;4997166;28;20326;-80
2022/02/09 08:02:58;;;;;;;4.82;2.90;;;1.10;87.80;;;;;;5014642;28;20096;-80
2022/02/09 08:05:24;;;;;;;5.57;2.65;;;1.00;87.60;;;;;;5015042;28;20029;-81
2022/02/09 08:07:51;;;;;;;5.13;3.03;;;1.00;87.60;;;;;;5016051;28;20030;-81
2022/02/09 08:10:27;;;;;;;5.50;3.92;;;1.00;87.60;;;;;;5013999;28;20133;-81
2022/02/09 08:33:44;;;;;;;8.48;3.42;;;2.70;89.20;;;;;;5031504;28;20383;-82
2022/02/09 08:36:10;;;;;;;;;;;3.90;85.20;;;;;;4997506;28;20034;-82
2022/02/09 08:38:36;;;;;;;6.13;3.55;;;4.60;83.80;;;;;;5014069;28;20490;-80
2022/02/09 08:41:03;;;;;;;4.53;2.75;;;5.10;79.30;;;;;;5013869;28;20033;-83
2022/02/09 08:43:29;;;;;;;2.67;2.17;;;5.50;77.30;;;;;;4996628;28;20376;-82
2022/02/09 08:45:55;;;;;;;3.53;2.70;;;5.60;73.70;;;;;;5014111;28;20028;-80
2022/02/09 08:48:20;;;;;;;3.90;2.83;;;5.30;73.00;;;;;;5014171;28;20376;-82
2022/02/09 08:50:51;;;;;;;6.75;3.35;;;5.10;74.00;;;;;;5012958;28;20034;-82
2022/02/09 08:53:19;;;;;;;6.55;3.78;;;4.70;71.80;;;;;;5013150;28;20026;-81
2022/02/09 08:55:46;;;;;;;5.75;2.67;;;4.20;72.10;;;;;;5013808;28;20022;-81
2022/02/09 08:58:15;;;;;;;7.63;4.05;;;3.90;73.00;;;;;;4996187;28;20061;-82
2022/02/09 09:00:41;;;;;;;8.48;3.42;;;3.70;73.40;;;;;;5013771;28;20387;-81
2022/02/09 09:05:48;;;;;;;7.85;3.50;;;3.50;73.80;;;;;;5014141;28;20025;-81
2022/02/09 09:08:35;;;;;;;4.00;2.95;;;3.70;74.20;;;;;;5032272;28;20030;-82
2022/02/09 09:11:30;;;;;;;5.57;3.00;;;3.80;73.50;;;;;;5033506;28;20033;-82
2022/02/09 09:17:58;;;;;;;5.30;3.13;;;4.20;73.00;;;;;;4972027;28;20138;-82
2022/02/09 09:58:11;;;;;;;4.25;3.00;;;8.70;55.80;;;;;;5032845;28;20103;-82
2022/02/09 10:03:50;;;;;;;3.92;2.47;;;8.30;54.70;;;;;;5012695;28;20114;-80
2022/02/09 10:34:10;;;;;;;6.03;3.65;;;8.90;54.40;;;;;;5016422;28;20491;-82
2022/02/09 10:36:57;;;;;;;5.63;3.30;;;9.90;54.00;;;;;;5015911;28;20018;-84
2022/02/09 10:40:00;;;;;;;6.18;4.25;;;9.80;52.00;;;;;;5015695;28;20106;-83
2022/02/09 10:42:37;;;;;;;4.35;2.88;;;9.00;52.90;;;;;;5015762;28;20038;-82
2022/02/09 10:45:19;;;;;;;5.68;3.95;;;8.10;54.60;;;;;;5015974;28;20333;-82
2022/02/09 10:47:44;;;;;;;5.70;3.38;;;7.40;55.90;;;;;;5014314;28;20037;-81
2022/02/09 10:50:28;;;;;;;5.82;3.40;;;6.90;57.40;;;;;;5014683;28;20064;-82
2022/02/09 10:52:57;;;;;;;4.32;3.15;;;6.60;58.40;;;;;;5015334;28;20014;-82
2022/02/09 10:55:36;;;;;;;4.22;2.83;;;6.30;59.20;;;;;;4997579;28;20116;-82
2022/02/09 10:58:17;;;;;;;4.05;2.83;;;6.00;59.80;;;;;;5014898;28;20022;-83
2022/02/09 11:00:45;;;;;;;6.70;3.33;;;5.70;60.90;;;;;;5015141;28;20479;-83
2022/02/09 11:03:19;;;;;;;6.68;3.42;;;5.50;61.70;;;;;;5015824;28;20033;-83
2022/02/09 11:05:48;;;;;;;5.55;3.95;;;5.30;62.60;;;;;;5015354;28;20426;-82
2022/02/09 11:08:16;;;;;;;6.53;3.53;;;5.10;62.90;;;;;;5015159;28;20036;-81
2022/02/09 11:10:44;;;;;;;7.40;3.30;;;4.80;63.80;;;;;;5015075;28;20068;-82
2022/02/09 11:13:11;;;;;;;9.93;5.22;;;4.60;64.40;;;;;;5014663;28;20042;-82
2022/02/09 11:15:40;;;;;;;4.90;3.38;;;4.40;65.10;;;;;;5014900;28;20025;-80
2022/02/09 11:18:08;;;;;;;5.38;2.70;;;4.20;65.70;;;;;;5015300;28;20036;-81
2022/02/09 11:21:02;;;;;;;8.20;3.55;;;4.10;66.30;;;;;;5014253;28;20037;-84
2022/02/09 11:23:43;;;;;;;5.38;3.45;;;3.90;67.30;;;;;;5015801;28;20024;-84
2022/02/09 11:37:51;;;;;;;4.60;3.10;;;4.30;68.30;;;;;;5015300;28;20101;-83
2022/02/09 11:43:30;;;;;;;8.02;3.40;;;3.80;69.00;;;;;;5015328;28;20125;-82
2022/02/09 11:52:12;;;;;;;7.60;4.80;;;3.70;70.30;;;;;;5015148;28;20131;-82
2022/02/09 11:55:45;;;;;;;5.10;3.63;;;3.70;70.70;;;;;;5015801;28;20108;-82
2022/02/09 12:01:10;;;;;;;5.25;3.00;;;3.60;71.10;;;;;;5023086;28;20033;-81
2022/02/09 12:09:25;;;;;;;7.45;4.13;;;3.50;71.60;;;;;;5034527;28;20152;-82
2022/02/09 12:11:52;;;;;;;15.82;7.30;;;3.40;71.90;;;;;;5016347;28;20025;-82
2022/02/09 12:14:51;;;;;;;6.35;3.80;;;3.50;72.30;;;;;;5034180;28;20473;-81
2022/02/09 12:23:08;;;;;;;8.88;3.88;;;3.60;72.30;;;;;;5038321;28;20390;-82
2022/02/09 12:25:48;;;;;;;4.43;3.13;;;3.50;72.20;;;;;;5035709;28;20378;-83
2022/02/09 12:28:19;;;;;;;3.72;3.22;;;3.40;72.50;;;;;;5035399;28;20076;-80
2022/02/09 12:30:46;;;;;;;3.90;2.97;;;3.50;73.00;;;;;;5041021;28;20119;-79
2022/02/09 12:33:22;;;;;;;6.20;3.83;;;3.50;73.00;;;;;;5038116;28;20458;-82
2022/02/09 12:35:48;;;;;;;4.90;3.35;;;3.40;72.90;;;;;;5035103;28;20036;-81
2022/02/09 12:38:14;;;;;;;5.35;3.47;;;3.40;73.00;;;;;;5034884;28;20029;-82
2022/02/09 12:40:43;;;;;;;4.65;3.40;;;3.40;73.20;;;;;;5033315;28;20391;-82
2022/02/09 12:43:12;;;;;;;8.38;4.10;;;3.40;73.40;;;;;;5033732;28;20036;-82
2022/02/09 12:45:40;;;;;;;10.10;6.22;;;3.40;73.60;;;;;;5020194;28;20100;-81
2022/02/09 12:48:09;;;;;;;5.75;4.03;;;3.40;73.40;;;;;;5013986;28;20080;-82
2022/02/09 12:50:40;;;;;;;5.05;3.58;;;3.30;73.50;;;;;;5015805;28;20071;-83
2022/02/09 12:53:26;;;;;;;;;;;;;;;;;;;;;
2022/02/09 12:56:01;;;;;;;6.10;4.13;;;3.20;74.10;;;;;;5013462;28;20038;-85
2022/02/09 12:58:27;;;;;;;8.00;5.07;;;3.10;74.40;;;;;;5028329;28;20030;-84
2022/02/09 13:00:54;;;;;;;8.93;3.75;;;3.10;74.80;;;;;;5032897;28;20041;-81
2022/02/09 13:03:22;;;;;;;9.27;4.80;;;3.10;75.20;;;;;;5032912;28;20022;-82
2022/02/09 13:05:56;;;;;;;8.95;4.47;;;3.10;75.40;;;;;;5031569;28;20034;-83
2022/02/09 13:08:28;;;;;;;11.35;5.05;;;3.00;75.50;;;;;;5032784;28;20021;-82
2022/02/09 13:11:26;;;;;;;8.27;4.13;;;3.00;75.60;;;;;;5033028;28;20041;-83
2022/02/09 13:14:08;;;;;;;5.20;3.90;;;3.00;75.70;;;;;;5016357;28;20022;-83
2022/02/09 14:03:32;;;;;;;5.70;4.15;;;2.70;78.80;;;;;;5032911;28;20033;-80
2022/02/09 14:14:13;;;;;;;8.32;5.65;;;2.50;79.60;;;;;;4971642;28;20457;-82
2022/02/09 14:50:23;;;;;;;13.18;6.63;;;2.30;81.60;;;;;;5015221;28;20128;-82
2022/02/09 14:53:01;;;;;;;8.48;6.57;;;2.30;82.10;;;;;;5015773;28;20399;-83
2022/02/09 14:57:35;;;;;;;14.10;8.43;;;2.20;82.30;;;;;;5019889;28;20480;-82
2022/02/09 15:00:14;;;;;;;8.20;5.68;;;2.20;82.70;;;;;;5017802;28;20018;-82
2022/02/09 15:02:55;;;;;;;13.35;7.97;;;2.20;82.80;;;;;;5016169;28;20054;-83
2022/02/09 15:14:04;;;;;;;8.25;6.03;;;2.20;83.60;;;;;;5017219;28;20021;-81
2022/02/09 15:16:47;;;;;;;10.30;5.88;;;2.30;83.80;;;;;;5021950;28;20117;-81
2022/02/09 15:24:29;;;;;;;8.55;6.13;;;2.20;84.70;;;;;;5035357;28;20191;-83
2022/02/09 15:26:59;;;;;;;13.35;6.35;;;2.20;85.00;;;;;;5035526;28;20380;-83
2022/02/09 15:29:24;;;;;;;8.48;5.25;;;2.10;85.30;;;;;;5033210;28;20406;-82
2022/02/09 15:31:58;;;;;;;8.93;6.40;;;2.00;85.90;;;;;;5034797;28;20045;-82
2022/02/09 15:39:17;;;;;;;11.95;6.15;;;1.90;87.70;;;;;;5014811;28;20105;-82
2022/02/09 15:42:03;;;;;;;13.57;5.93;;;1.90;88.10;;;;;;5015144;28;20431;-82
2022/02/09 15:59:22;;;;;;;15.27;6.00;;;1.50;90.70;;;;;;5014655;28;20049;-83
2022/02/09 16:23:09;;;;;;;16.63;9.38;;;1.50;92.00;;;;;;5014503;28;20065;-85
2022/02/09 16:26:01;;;;;;;14.60;9.63;;;1.60;92.10;;;;;;5014562;28;20021;-82
2022/02/09 16:34:33;;;;;;;11.80;8.45;;;1.70;92.20;;;;;;5014494;28;20116;-82
2022/02/09 16:44:56;;;;;;;17.77;10.50;;;1.80;92.20;;;;;;5035909;28;20028;-83
2022/02/09 16:52:25;;;;;;;12.30;8.63;;;1.80;92.40;;;;;;5016409;28;20034;-81
2022/02/09 17:08:25;;;;;;;26.95;11.27;;;1.80;92.50;;;;;;5014202;28;20018;-83
2022/02/09 17:19:34;;;;;;;10.93;7.47;;;1.80;92.90;;;;;;5033004;28;20175;-82
2022/02/09 17:22:00;;;;;;;15.13;8.75;;;1.80;93.00;;;;;;5033270;28;20029;-83
2022/02/09 17:24:26;;;;;;;18.35;10.05;;;1.80;93.00;;;;;;5033152;28;20080;-82
2022/02/09 17:26:58;;;;;;;12.55;8.32;;;1.90;93.10;;;;;;5031767;28;20065;-82
2022/02/09 17:29:43;;;;;;;14.48;9.73;;;1.90;93.10;;;;;;5033472;28;20498;-81
2022/02/09 17:32:22;;;;;;;13.02;8.15;;;1.90;93.10;;;;;;5033828;28;20057;-82
2022/02/09 17:35:00;;;;;;;10.55;8.07;;;1.90;93.10;;;;;;5033282;28;20159;-83
2022/02/09 17:53:50;;;;;;;11.05;7.07;;;1.80;93.30;;;;;;5013684;28;20084;-82
2022/02/09 17:56:21;;;;;;;12.77;8.40;;;1.80;93.30;;;;;;5011683;28;20479;-83
2022/02/09 17:58:49;;;;;;;20.45;12.20;;;1.70;93.30;;;;;;5012195;28;20071;-81
2022/02/09 18:01:19;;;;;;;11.65;8.10;;;1.70;93.40;;;;;;5012028;28;20476;-80
2022/02/09 18:03:45;;;;;;;13.48;9.35;;;1.70;93.40;;;;;;5011708;28;20463;-82
2022/02/09 18:06:29;;;;;;;15.70;10.75;;;1.70;93.60;;;;;;5017620;28;20029;-83
2022/02/09 18:09:12;;;;;;;14.05;8.77;;;1.70;93.70;;;;;;5032731;28;20021;-83
2022/02/09 18:30:24;;;;;;;9.68;7.75;;;1.60;93.80;;;;;;5017131;28;20052;-82
2022/02/09 18:33:08;;;;;;;9.95;6.93;;;1.60;93.80;;;;;;5017436;28;20050;-82
2022/02/09 18:43:47;;;;;;;11.40;6.28;;;1.60;94.00;;;;;;5015947;28;20559;-82
2022/02/09 18:46:32;;;;;;;9.65;6.90;;;1.60;94.00;;;;;;5015929;28;20494;-82
2022/02/09 18:59:59;;;;;;;10.63;7.45;;;1.60;94.20;;;;;;4997412;28;20034;-84
2022/02/09 19:05:35;;;;;;;11.77;7.40;;;1.60;94.20;;;;;;4996579;28;20072;-80
2022/02/09 19:16:24;;;;;;;9.55;6.35;;;1.60;94.40;;;;;;5016127;28;20076;-85
2022/02/09 19:48:23;;;;;;;7.72;6.63;;;1.50;95.00;;;;;;5028502;28;20017;-82
2022/02/09 19:51:10;;;;;;;9.20;7.25;;;1.50;95.00;;;;;;5020446;28;20045;-84
2022/02/09 19:53:45;;;;;;;10.45;8.02;;;1.60;95.10;;;;;;5012829;28;20030;-83
2022/02/09 19:56:20;;;;;;;9.82;6.65;;;1.50;95.00;;;;;;5017804;28;20075;-83
2022/02/09 19:58:55;;;;;;;9.77;6.13;;;1.50;94.90;;;;;;5015242;28;20025;-85
2022/02/09 20:01:23;;;;;;;8.82;7.13;;;1.60;95.00;;;;;;5013058;28;20049;-82
2022/02/09 20:03:49;;;;;;;9.50;6.68;;;1.60;95.00;;;;;;5017275;28;20497;-84
2022/02/09 20:06:15;;;;;;;8.65;6.35;;;1.60;95.00;;;;;;5022204;28;20025;-84
2022/02/09 20:08:41;;;;;;;11.48;5.95;;;1.50;95.00;;;;;;5033335;28;20084;-83
2022/02/09 20:11:14;;;;;;;8.20;5.45;;;1.50;95.00;;;;;;5026430;28;20026;-82
2022/02/09 20:13:40;;;;;;;8.68;5.75;;;1.50;95.00;;;;;;5015048;28;20554;-81
2022/02/09 20:16:06;;;;;;;11.30;7.10;;;1.50;95.10;;;;;;5019511;28;20078;-84
2022/02/09 20:18:32;;;;;;;8.68;7.18;;;1.60;95.00;;;;;;5015647;28;20037;-86
2022/02/09 20:20:59;;;;;;;11.50;6.53;;;1.60;95.00;;;;;;5026193;28;20447;-84
2022/02/09 20:23:27;;;;;;;7.83;5.73;;;1.60;95.00;;;;;;4995613;28;20022;-84
2022/02/09 20:25:52;;;;;;;;;;;1.60;95.00;;;;;;5013608;28;20120;-83
2022/02/09 20:28:19;;;;;;;7.13;5.75;;;1.60;94.90;;;;;;5014344;28;19959;-85
2022/02/09 20:30:51;;;;;;;7.15;6.13;;;1.50;94.90;;;;;;5013271;28;20022;-83
2022/02/09 20:33:25;;;;;;;8.25;6.63;;;1.60;95.00;;;;;;4971956;28;1240205;-85
2022/02/09 20:35:52;;;;;;;8.20;6.10;;;1.60;95.00;;;;;;5016195;28;20383;-82
2022/02/09 20:38:23;;;;;;;10.00;6.57;;;1.50;95.00;;;;;;5014692;28;20030;-83
2022/02/09 20:40:57;;;;;;;10.23;6.75;;;1.50;95.10;;;;;;5016373;28;20045;-86
2022/02/09 20:43:24;;;;;;;7.18;5.32;;;1.60;95.10;;;;;;5015594;28;20075;-90
2022/02/09 20:46:10;;;;;;;7.47;5.40;;;1.50;95.00;;;;;;5049282;28;20025;-88
2022/02/09 20:48:51;;;;;;;8.05;5.60;;;1.50;95.00;;;;;;5014774;28;20097;-89
2022/02/09 20:51:19;;;;;;;8.55;6.30;;;1.50;95.10;;;;;;5057076;28;20037;-92
2022/02/09 20:53:46;;;;;;;7.50;5.13;;;1.50;95.10;;;;;;5050490;28;20082;-93
2022/02/09 20:56:15;;;;;;;10.05;6.00;;;1.50;95.00;;;;;;5035336;28;20032;-94
2022/02/09 20:58:44;;;;;;;9.55;6.03;;;1.50;95.00;;;;;;5037416;28;20030;-91
2022/02/09 21:01:18;;;;;;;7.85;5.30;;;1.50;95.10;;;;;;5033135;28;20042;-92
2022/02/09 21:04:00;;;;;;;11.80;6.13;;;1.50;95.10;;;;;;5037909;28;20026;-86
2022/02/09 21:10:28;;;;;;;8.75;5.85;;;1.50;95.10;;;;;;5022295;28;20045;-93
2022/02/09 21:13:08;;;;;;;7.75;4.90;;;1.50;95.20;;;;;;5081433;22;20062;-93
2022/02/09 21:22:37;;;;;;;7.25;5.03;;;1.50;95.10;;;;;;4958536;29;20035;-94
2022/02/09 21:54:40;;;;;;;8.68;6.30;;;1.40;95.10;;;;;;4937195;29;20106;-90
2022/02/09 21:57:38;;;;;;;6.70;5.45;;;1.40;95.40;;;;;;4919270;29;20038;-87
2022/02/09 22:25:26;;;;;;;7.47;6.00;;;1.20;95.10;;;;;;5012747;28;20428;-79
2022/02/09 22:27:19;;;;;;;6.57;5.25;;;1.20;95.10;;;;;;5007808;28;20044;-77
2022/02/09 22:46:12;;;;;;;7.18;4.93;;;1.20;94.80;;;;;;5032283;28;20032;-81
2022/02/09 22:49:00;;;;;;;5.72;4.30;;;1.30;94.70;;;;;;5016621;28;20029;-80
2022/02/09 22:54:28;;;;;;;5.10;3.60;;;1.30;94.60;;;;;;5031450;28;20021;-80
2022/02/09 22:54:35;;;;;;;6.63;4.38;;;1.20;94.40;;;;;;5031756;28;20084;-80
2022/02/09 22:57:01;;;;;;;7.38;4.85;;;1.20;94.40;;;;;;5014179;28;20033;-79
2022/02/09 22:59:37;;;;;;;7.47;5.47;;;1.20;94.40;;;;;;5031707;28;20025;-80
2022/02/09 23:02:21;;;;;;;6.32;4.05;;;1.30;94.40;;;;;;5031573;28;20029;-80
2022/02/09 23:13:23;;;;;;;6.68;4.50;;;1.30;94.30;;;;;;4978357;28;20050;-78
2022/02/09 23:21:21;;;;;;;4.68;3.60;;;1.40;93.60;;;;;;4974652;28;20102;-80
2022/02/09 23:26:44;;;;;;;5.47;3.00;;;1.40;93.30;;;;;;4974014;28;20114;-79
